sensor_id;sensor_type;location;lat;lon;timestamp;temperature;humidity
24632;DHT22;59977;48.782;9.190;2022-10-03T19:21:17;13.50;99.90
24632;DHT22;59977;48.782;9.190;2022-10-03T19:24:08;13.30;99.90
24632;DHT22;59977;48.782;9.190;2022-10-03T19:26:43;13.10;99.90
24632;DHT22;59977;48.782;9.190;2022-10-03T19:29:32;13.20;99.90
24632;DHT22;59977;48.782;9.190;2022-10-03T19:32:04;13.20;99.90
24632;DHT22;59977;48.782;9.190;2022-10-03T19:34:39;13.20;99.90
24632;DHT22;59977;48.782;9.190;2022-10-03T19:37:35;13.20;99.90
24632;DHT22;59977;48.782;9.190;2022-10-03T19:40:13;13.10;99.90
24632;DHT22;59977;48.782;9.190;2022-10-03T19:42:44;13.20;99.90
24632;DHT22;59977;48.782;9.190;2022-10-03T19:45:13;13.20;99.90
24632;DHT22;59977;48.782;9.190;2022-10-03T19:47:46;13.20;99.90
24632;DHT22;59977;48.782;9.190;2022-10-03T19:50:20;13.20;99.90
24632;DHT22;59977;48.782;9.190;2022-10-03T19:52:50;13.10;99.90
24632;DHT22;59977;48.782;9.190;2022-10-03T19:55:33;13.10;99.90
24632;DHT22;59977;48.782;9.190;2022-10-03T20:00:35;13.00;99.90
24632;DHT22;59977;48.782;9.190;2022-10-03T20:05:48;12.80;99.90
24632;DHT22;59977;48.782;9.190;2022-10-03T20:08:24;12.80;99.90
24632;DHT22;59977;48.782;9.190;2022-10-03T20:13:52;12.80;99.90
24632;DHT22;59977;48.782;9.190;2022-10-03T20:16:26;12.80;99.90
24632;DHT22;59977;48.782;9.190;2022-10-03T20:19:04;12.80;99.90
24632;DHT22;59977;48.782;9.190;2022-10-03T20:21:30;12.70;99.90
24632;DHT22;59977;48.782;9.190;2022-10-03T20:23:59;12.70;99.90
24632;DHT22;59977;48.782;9.190;2022-10-03T20:29:26;12.70;99.90
24632;DHT22;59977;48.782;9.190;2022-10-03T20:32:01;12.70;99.90
24632;DHT22;59977;48.782;9.190;2022-10-03T20:34:28;12.60;99.90
24632;DHT22;59977;48.782;9.190;2022-10-03T20:37:20;12.60;99.90
24632;DHT22;59977;48.782;9.190;2022-10-03T20:39:48;12.60;99.90
24632;DHT22;59977;48.782;9.190;2022-10-03T20:42:19;12.70;99.90
24632;DHT22;59977;48.782;9.190;2022-10-03T20:45:03;12.60;99.90
24632;DHT22;59977;48.782;9.190;2022-10-03T20:52:52;12.50;99.90
24632;DHT22;59977;48.782;9.190;2022-10-03T20:55:26;12.50;99.90
24632;DHT22;59977;48.782;9.190;2022-10-03T21:00:30;12.30;99.90
24632;DHT22;59977;48.782;9.190;2022-10-03T21:03:05;12.30;99.90
24632;DHT22;59977;48.782;9.190;2022-10-03T21:05:44;12.30;99.90
24632;DHT22;59977;48.782;9.190;2022-10-03T21:08:24;12.30;99.90
24632;DHT22;59977;48.782;9.190;2022-10-03T21:10:57;12.30;99.90
24632;DHT22;59977;48.782;9.190;2022-10-03T21:13:38;12.20;99.90
24632;DHT22;59977;48.782;9.190;2022-10-03T21:18:44;12.40;99.90
24632;DHT22;59977;48.782;9.190;2022-10-03T21:23:54;12.30;99.90
24632;DHT22;59977;48.782;9.190;2022-10-03T21:26:25;12.20;99.90
24632;DHT22;59977;48.782;9.190;2022-10-03T21:40:14;12.30;99.90
24632;DHT22;59977;48.782;9.190;2022-10-03T21:42:43;12.30;99.90
24632;DHT22;59977;48.782;9.190;2022-10-03T21:45:44;12.40;99.90
24632;DHT22;59977;48.782;9.190;2022-10-03T21:48:54;12.30;99.90
24632;DHT22;59977;48.782;9.190;2022-10-03T21:51:25;12.30;99.90
24632;DHT22;59977;48.782;9.190;2022-10-03T21:54:58;12.10;99.90
24632;DHT22;59977;48.782;9.190;2022-10-03T21:57:13;12.10;99.90
24632;DHT22;59977;48.782;9.190;2022-10-03T21:59:57;12.10;99.90
24632;DHT22;59977;48.782;9.190;2022-10-03T22:19:49;11.80;99.90
24632;DHT22;59977;48.782;9.190;2022-10-03T22:22:43;11.20;99.90
24632;DHT22;59977;48.782;9.190;2022-10-03T22:30:52;11.70;99.90
24632;DHT22;59977;48.782;9.190;2022-10-03T22:36:18;11.70;99.90
24632;DHT22;59977;48.782;9.190;2022-10-03T22:38:45;11.70;99.90
24632;DHT22;59977;48.782;9.190;2022-10-03T22:41:16;11.70;99.90
24632;DHT22;59977;48.782;9.190;2022-10-03T22:43:45;11.70;99.90
24632;DHT22;59977;48.782;9.190;2022-10-03T22:46:16;11.70;99.90
24632;DHT22;59977;48.782;9.190;2022-10-03T22:48:51;11.70;99.90
24632;DHT22;59977;48.782;9.190;2022-10-03T22:51:19;11.70;99.90
24632;DHT22;59977;48.782;9.190;2022-10-03T22:53:50;11.60;99.90
24632;DHT22;59977;48.782;9.190;2022-10-03T22:59:05;12.20;99.90
24632;DHT22;59977;48.782;9.190;2022-10-03T23:01:33;11.60;99.90
24632;DHT22;59977;48.782;9.190;2022-10-03T23:04:02;11.60;99.90
24632;DHT22;59977;48.782;9.190;2022-10-03T23:10:13;11.60;99.90
24632;DHT22;59977;48.782;9.190;2022-10-03T23:12:19;11.60;99.90
24632;DHT22;59977;48.782;9.190;2022-10-03T23:14:49;11.60;99.90
24632;DHT22;59977;48.782;9.190;2022-10-03T23:20:24;11.30;99.90
24632;DHT22;59977;48.782;9.190;2022-10-03T23:22:57;11.20;99.90
